createdAt,value
2022-11-22T00:02:25.436Z,86.21
2022-11-22T00:05:15.127Z,86.33
2022-11-22T00:08:04.854Z,86.33
2022-11-22T00:10:55.746Z,87.07
2022-11-22T00:13:45.227Z,87.88
2022-11-22T00:16:35.215Z,87.83
2022-11-22T00:19:24.717Z,88.02
2022-11-22T00:22:14.509Z,87.47
2022-11-22T00:25:07.122Z,87.24
2022-11-22T00:27:58.242Z,87.51
2022-11-22T00:30:47.674Z,86.67
2022-11-22T00:33:37.079Z,86.57
2022-11-22T00:36:26.808Z,86.81
2022-11-22T00:39:16.216Z,87.21
2022-11-22T00:42:06.100Z,87.46
2022-11-22T00:44:57.036Z,87.51
2022-11-22T00:47:46.422Z,87.63
2022-11-22T00:50:35.793Z,87.71
2022-11-22T00:53:25.433Z,87.97
2022-11-22T00:56:14.876Z,88.21
2022-11-22T00:59:04.163Z,88.16
2022-11-22T01:01:55.264Z,87.54
2022-11-22T01:04:44.531Z,87.45
2022-11-22T01:07:34.131Z,87.66
2022-11-22T01:10:23.643Z,87.39
2022-11-22T01:13:14.113Z,87.52
2022-11-22T01:16:04.501Z,87.30
2022-11-22T01:18:55.143Z,87.08
2022-11-22T01:21:44.459Z,87.13
2022-11-22T01:24:33.735Z,87.39
2022-11-22T01:27:23.103Z,87.67
2022-11-22T01:30:13.876Z,87.33
2022-11-22T01:33:03.132Z,87.37
2022-11-22T01:35:54.334Z,86.90
2022-11-22T01:38:43.774Z,87.18
2022-11-22T01:41:33.364Z,87.10
2022-11-22T01:44:26.582Z,86.70
2022-11-22T01:47:19.140Z,87.17
2022-11-22T01:50:16.708Z,87.58
2022-11-22T01:53:15.205Z,87.42
2022-11-22T01:56:08.729Z,87.88
2022-11-22T01:59:04.691Z,87.67
2022-11-22T02:01:55.522Z,87.32
2022-11-22T02:04:51.318Z,86.86
2022-11-22T02:07:50.624Z,86.42
2022-11-22T02:10:49.023Z,86.75
2022-11-22T02:13:43.733Z,86.95
2022-11-22T02:16:33.215Z,86.33
2022-11-22T02:19:34.605Z,86.26
2022-11-22T02:22:34.543Z,86.06
2022-11-22T02:25:31.480Z,85.57
2022-11-22T02:28:22.245Z,86.40
2022-11-22T02:31:31.565Z,86.18
2022-11-22T02:34:20.894Z,86.16
2022-11-22T02:37:11.064Z,86.24
2022-11-22T02:40:03.291Z,86.31
2022-11-22T02:43:00.085Z,87.00
2022-11-22T02:45:50.922Z,87.70
2022-11-22T02:48:43.828Z,87.52
2022-11-22T02:51:33.195Z,88.12
2022-11-22T02:54:22.649Z,88.48
2022-11-22T02:57:12.195Z,88.16
2022-11-22T03:00:01.488Z,88.39
2022-11-22T03:02:52.840Z,88.87
2022-11-22T03:05:42.324Z,88.90
2022-11-22T03:08:31.686Z,88.76
2022-11-22T03:11:21.081Z,88.73
2022-11-22T03:14:10.455Z,89.18
2022-11-22T03:16:59.726Z,88.88
2022-11-22T03:19:50.500Z,89.11
2022-11-22T03:22:39.801Z,88.55
2022-11-22T03:25:29.557Z,88.28
2022-11-22T03:28:18.874Z,88.22
2022-11-22T03:31:08.570Z,88.46
2022-11-22T03:33:58.398Z,88.75
2022-11-22T03:36:49.252Z,89.28
2022-11-22T03:39:38.769Z,90.02
2022-11-22T03:42:28.168Z,89.49
2022-11-22T03:45:17.691Z,88.93
2022-11-22T03:48:07.473Z,88.88
2022-11-22T03:51:05.011Z,88.59
2022-11-22T03:53:56.003Z,88.44
2022-11-22T03:56:45.630Z,88.48
2022-11-22T03:59:35.095Z,88.48
2022-11-22T04:02:24.477Z,88.58
2022-11-22T04:05:13.988Z,88.24
2022-11-22T04:08:03.293Z,88.19
2022-11-22T04:10:54.630Z,88.90
2022-11-22T04:14:00.994Z,88.41
2022-11-22T04:16:50.244Z,88.86
2022-11-22T04:19:59.614Z,88.67
2022-11-22T04:22:56.833Z,88.26
2022-11-22T04:25:48.355Z,88.51
2022-11-22T04:29:09.283Z,88.54
2022-11-22T04:32:06.421Z,88.82
2022-11-22T04:34:55.951Z,89.27
2022-11-22T04:37:51.240Z,88.73
2022-11-22T04:40:41.382Z,89.34
2022-11-22T04:43:49.164Z,89.43
2022-11-22T04:46:39.905Z,89.37
2022-11-22T04:49:29.390Z,88.99
2022-11-22T04:52:35.934Z,89.01
2022-11-22T04:55:25.507Z,89.99
2022-11-22T04:58:15.660Z,89.77
2022-11-22T05:01:06.040Z,90.29
2022-11-22T05:03:56.697Z,90.16
2022-11-22T05:06:46.143Z,89.71
2022-11-22T05:09:35.427Z,90.19
2022-11-22T05:12:24.660Z,90.07
2022-11-22T05:15:14.367Z,90.18
2022-11-22T05:18:03.605Z,90.12
2022-11-22T05:20:54.806Z,90.20
2022-11-22T05:23:54.998Z,89.99
2022-11-22T05:26:44.394Z,90.55
2022-11-22T05:29:33.685Z,90.33
2022-11-22T05:32:22.936Z,89.84
2022-11-22T05:35:12.227Z,89.93
2022-11-22T05:38:02.846Z,90.02
2022-11-22T05:40:52.102Z,90.16
2022-11-22T05:43:42.214Z,89.93
2022-11-22T05:46:32.531Z,89.58
2022-11-22T05:49:21.825Z,89.29
2022-11-22T05:52:11.138Z,89.58
2022-11-22T05:55:01.930Z,89.13
2022-11-22T05:57:51.226Z,88.89
2022-11-22T06:00:40.501Z,89.55
2022-11-22T06:03:29.714Z,89.21
2022-11-22T06:06:19.521Z,89.25
2022-11-22T06:09:08.910Z,89.86
2022-11-22T06:12:00.088Z,89.51
2022-11-22T06:14:49.402Z,88.81
2022-11-22T06:17:38.811Z,88.62
2022-11-22T06:20:28.199Z,89.29
2022-11-22T06:23:17.616Z,88.86
2022-11-22T06:26:09.804Z,89.51
2022-11-22T06:29:00.736Z,89.24
2022-11-22T06:31:50.189Z,90.33
2022-11-22T06:34:39.588Z,89.29
2022-11-22T06:37:29.169Z,89.13
2022-11-22T06:40:19.109Z,89.54
2022-11-22T06:43:08.416Z,89.50
2022-11-22T06:46:00.144Z,89.56
2022-11-22T06:48:50.180Z,89.24
2022-11-22T06:51:39.503Z,89.53
2022-11-22T06:54:28.804Z,89.68
2022-11-22T06:57:18.184Z,89.59
2022-11-22T07:00:09.829Z,89.89
2022-11-22T07:03:00.477Z,89.09
2022-11-22T07:05:52.309Z,89.17
2022-11-22T07:08:42.542Z,89.64
2022-11-22T07:11:33.380Z,90.29
2022-11-22T07:14:22.730Z,90.10
2022-11-22T07:17:12.036Z,89.66
2022-11-22T07:20:02.758Z,90.37
2022-11-22T07:22:52.058Z,90.73
2022-11-22T07:25:44.501Z,90.91
2022-11-22T07:28:34.605Z,91.73
2022-11-22T07:31:23.973Z,91.93
2022-11-22T07:34:13.397Z,92.04
2022-11-22T07:37:08.870Z,92.35
2022-11-22T07:39:58.522Z,91.71
2022-11-22T07:42:47.972Z,91.37
2022-11-22T07:45:37.410Z,92.12
2022-11-22T07:48:26.776Z,91.92
2022-11-22T07:51:16.281Z,91.99
2022-11-22T07:54:07.101Z,91.93
2022-11-22T07:56:56.464Z,91.89
2022-11-22T07:59:46.060Z,92.98
2022-11-22T08:02:37.531Z,92.57
2022-11-22T08:05:27.803Z,92.12
2022-11-22T08:08:17.280Z,92.34
2022-11-22T08:11:09.244Z,91.89
2022-11-22T08:13:58.914Z,91.81
2022-11-22T08:16:48.215Z,91.20
2022-11-22T08:19:37.581Z,91.24
2022-11-22T08:22:26.972Z,91.54
2022-11-22T08:25:16.239Z,90.90
2022-11-22T08:28:07.565Z,91.29
2022-11-22T08:31:02.804Z,91.48
2022-11-22T08:33:55.150Z,91.72
2022-11-22T08:36:44.525Z,91.60
2022-11-22T08:39:33.909Z,92.11
2022-11-22T08:42:23.318Z,91.73
2022-11-22T08:45:14.120Z,92.13
2022-11-22T08:48:03.349Z,91.66
2022-11-22T08:50:53.834Z,91.90
2022-11-22T08:53:45.196Z,91.61
2022-11-22T08:56:34.712Z,91.71
2022-11-22T08:59:24.306Z,92.43
2022-11-22T09:02:15.065Z,92.21
2022-11-22T09:05:04.401Z,92.33
2022-11-22T09:11:03.390Z,92.57
2022-11-22T09:13:53.286Z,92.68
2022-11-22T09:16:42.894Z,92.74
2022-11-22T09:19:33.926Z,92.75
2022-11-22T09:22:28.207Z,92.75
2022-11-22T09:25:18.008Z,92.03
2022-11-22T09:28:07.377Z,92.35
2022-11-22T09:31:01.852Z,92.23
2022-11-22T09:33:51.748Z,92.18
2022-11-22T09:36:42.587Z,91.84
2022-11-22T09:39:32.109Z,91.94
2022-11-22T09:43:03.686Z,91.67
2022-11-22T09:46:30.216Z,92.29
2022-11-22T09:49:31.286Z,91.63
2022-11-22T09:52:29.321Z,91.73
2022-11-22T09:55:27.169Z,92.20
2022-11-22T09:58:29.261Z,92.32
2022-11-22T10:01:22.802Z,92.72
2022-11-22T10:04:18.568Z,92.31
2022-11-22T10:07:15.852Z,92.58
2022-11-22T10:10:13.087Z,93.11
2022-11-22T10:13:07.775Z,92.39
2022-11-22T10:16:04.818Z,92.90
2022-11-22T10:19:02.233Z,92.94
2022-11-22T10:21:51.728Z,92.80
2022-11-22T10:24:41.645Z,92.82
2022-11-22T10:27:34.107Z,92.29
2022-11-22T10:30:23.475Z,92.38
2022-11-22T10:33:20.111Z,92.56
2022-11-22T10:36:28.583Z,91.85
2022-11-22T10:39:34.699Z,92.06
2022-11-22T10:42:59.019Z,92.49
2022-11-22T10:45:57.370Z,92.37
2022-11-22T10:48:56.254Z,92.06
2022-11-22T10:51:58.556Z,91.18
2022-11-22T10:54:57.510Z,91.31
2022-11-22T10:58:01.110Z,90.77
2022-11-22T11:00:58.714Z,90.96
2022-11-22T11:03:52.536Z,90.64
2022-11-22T11:07:15.415Z,90.92
2022-11-22T11:10:20.356Z,90.93
2022-11-22T11:13:30.451Z,90.86
2022-11-22T11:16:23.881Z,91.55
2022-11-22T11:19:19.942Z,90.48
2022-11-22T11:22:36.031Z,90.75
2022-11-22T11:25:31.450Z,90.75
2022-11-22T11:28:24.895Z,90.46
2022-11-22T11:31:15.886Z,91.28
2022-11-22T11:34:22.428Z,91.32
2022-11-22T11:37:33.611Z,91.21
2022-11-22T11:40:31.333Z,91.11
2022-11-22T11:43:24.434Z,91.02
2022-11-22T11:46:19.930Z,90.73
2022-11-22T11:49:13.038Z,90.88
2022-11-22T11:52:06.569Z,90.20
2022-11-22T11:54:59.038Z,89.80
2022-11-22T11:57:49.088Z,89.97
2022-11-22T12:00:41.240Z,89.47
2022-11-22T12:03:32.419Z,89.61
2022-11-22T12:06:21.726Z,89.77
2022-11-22T12:09:31.599Z,89.39
2022-11-22T12:12:44.334Z,89.22
2022-11-22T12:15:48.177Z,89.21
2022-11-22T12:18:47.531Z,88.20
2022-11-22T12:21:48.676Z,88.92
2022-11-22T12:25:09.777Z,88.45
2022-11-22T12:27:53.910Z,88.37
2022-11-22T12:30:46.387Z,87.79
2022-11-22T12:33:41.295Z,88.24
2022-11-22T12:36:39.713Z,87.84
2022-11-22T12:39:31.925Z,87.81
2022-11-22T12:42:29.953Z,88.54
2022-11-22T12:45:29.395Z,87.52
2022-11-22T12:48:26.817Z,87.48
2022-11-22T12:51:27.419Z,87.48
2022-11-22T12:54:22.221Z,87.40
2022-11-22T12:57:22.196Z,87.71
2022-11-22T13:00:18.365Z,87.08
2022-11-22T13:03:15.214Z,87.90
2022-11-22T13:06:10.164Z,87.80
2022-11-22T13:09:04.469Z,87.76
2022-11-22T13:12:01.366Z,87.73
2022-11-22T13:14:55.335Z,87.55
2022-11-22T13:17:44.982Z,87.00
2022-11-22T13:20:42.964Z,87.15
2022-11-22T13:24:06.333Z,86.25
2022-11-22T13:27:10.544Z,86.18
2022-11-22T13:30:03.068Z,86.50
2022-11-22T13:32:55.366Z,86.35
2022-11-22T13:35:44.777Z,86.22
2022-11-22T13:38:38.303Z,85.77
2022-11-22T13:41:32.559Z,86.18
2022-11-22T13:44:39.500Z,85.64
2022-11-22T13:47:43.899Z,85.43
2022-11-22T13:51:03.821Z,85.61
2022-11-22T13:54:41.489Z,85.73
2022-11-22T13:57:38.011Z,85.70
2022-11-22T14:00:48.556Z,85.63
2022-11-22T14:03:43.377Z,85.78
2022-11-22T14:06:33.180Z,85.55
2022-11-22T14:09:41.670Z,85.97
2022-11-22T14:13:22.278Z,85.71
2022-11-22T14:16:29.314Z,86.30
2022-11-22T14:19:53.478Z,86.09
2022-11-22T14:22:57.140Z,86.42
2022-11-22T14:26:13.000Z,86.16
2022-11-22T14:30:06.000Z,86.58
2022-11-22T14:33:05.106Z,86.73
2022-11-22T14:36:17.623Z,86.56
2022-11-22T14:40:01.748Z,86.36
2022-11-22T14:42:57.975Z,86.36
2022-11-22T14:45:53.367Z,85.99
2022-11-22T14:48:52.523Z,85.87
2022-11-22T14:51:43.286Z,85.88
2022-11-22T14:54:45.343Z,85.83
2022-11-22T14:57:38.042Z,85.65
2022-11-22T15:00:48.023Z,85.49
2022-11-22T15:09:14.153Z,85.53
2022-11-22T15:09:22.563Z,85.66
2022-11-22T15:11:35.833Z,85.66
2022-11-22T15:57:34.946Z,84.82
2022-11-22T16:00:27.334Z,85.01
2022-11-22T16:03:27.088Z,84.70
2022-11-22T16:06:30.890Z,84.57
2022-11-22T16:09:35.553Z,84.34
2022-11-22T16:12:32.069Z,83.45
2022-11-22T16:15:30.486Z,83.56
2022-11-22T16:18:28.286Z,83.35
2022-11-22T16:21:31.714Z,83.78
2022-11-22T16:24:20.869Z,83.41
2022-11-22T16:27:16.337Z,83.83
2022-11-22T16:30:13.088Z,83.32
2022-11-22T16:33:02.304Z,83.52
2022-11-22T16:35:55.394Z,83.51
2022-11-22T16:38:46.433Z,83.61
2022-11-22T16:41:36.568Z,83.51
2022-11-22T16:44:26.200Z,83.40
2022-11-22T16:47:19.500Z,83.97
2022-11-22T16:50:13.668Z,84.15
2022-11-22T16:53:03.155Z,84.15
2022-11-22T16:55:54.018Z,84.59
2022-11-22T16:58:43.479Z,84.45
2022-11-22T17:01:35.754Z,84.22
2022-11-22T17:04:27.101Z,83.95
2022-11-22T17:07:17.085Z,83.69
2022-11-22T17:10:07.836Z,83.71
2022-11-22T17:12:58.752Z,83.60
2022-11-22T17:15:48.779Z,83.56
2022-11-22T17:18:38.451Z,83.39
2022-11-22T17:21:35.848Z,83.72
2022-11-22T17:24:26.894Z,83.67
2022-11-22T17:27:16.460Z,83.56
2022-11-22T17:30:09.515Z,83.74
2022-11-22T17:32:58.963Z,83.77
2022-11-22T17:35:48.308Z,83.68
2022-11-22T17:38:37.533Z,83.80
2022-11-22T17:41:27.469Z,83.84
2022-11-22T17:44:19.381Z,84.04
2022-11-22T17:47:10.131Z,84.42
2022-11-22T17:49:59.459Z,84.00
2022-11-22T17:52:48.978Z,83.72
2022-11-22T17:56:08.900Z,84.15
2022-11-22T17:58:49.852Z,83.63
2022-11-22T18:01:39.224Z,84.07
2022-11-22T18:04:30.352Z,83.31
2022-11-22T18:07:20.853Z,83.19
2022-11-22T18:10:11.712Z,83.04
2022-11-22T18:13:20.824Z,83.13
2022-11-22T18:16:14.779Z,83.38
2022-11-22T18:19:04.081Z,82.87
2022-11-22T18:21:54.706Z,83.04
2022-11-22T18:24:44.209Z,83.18
2022-11-22T18:27:40.709Z,83.15
2022-11-22T18:30:34.335Z,83.38
2022-11-22T18:33:23.858Z,83.36
2022-11-22T18:39:38.520Z,83.10
2022-11-22T18:42:28.311Z,83.16
2022-11-22T18:45:19.789Z,83.29
2022-11-22T18:48:09.234Z,82.99
2022-11-22T18:51:03.704Z,83.33
2022-11-22T18:53:53.069Z,83.27
2022-11-22T18:56:43.878Z,83.03
2022-11-22T18:59:33.336Z,83.40
2022-11-22T19:02:25.947Z,83.02
2022-11-22T19:05:15.328Z,83.31
2022-11-22T19:08:04.632Z,83.03
2022-11-22T19:10:58.313Z,82.97
2022-11-22T19:13:49.328Z,83.25
2022-11-22T19:16:38.761Z,83.38
2022-11-22T19:19:32.250Z,83.18
2022-11-22T19:22:21.589Z,83.11
2022-11-22T19:25:11.373Z,83.17
2022-11-22T19:28:00.566Z,83.36
2022-11-22T19:30:51.392Z,84.33
2022-11-22T19:33:41.043Z,84.29
2022-11-22T19:36:33.773Z,84.24
2022-11-22T19:39:23.372Z,83.99
2022-11-22T19:42:13.215Z,84.21
2022-11-22T19:45:03.343Z,83.38
2022-11-22T19:47:54.083Z,83.27
2022-11-22T19:50:43.825Z,83.47
2022-11-22T19:53:33.158Z,82.96
2022-11-22T19:56:22.890Z,83.07
2022-11-22T19:59:16.078Z,83.33
2022-11-22T20:02:05.371Z,83.30
2022-11-22T20:04:56.897Z,83.84
2022-11-22T20:07:46.303Z,83.54
2022-11-22T20:10:38.397Z,83.57
2022-11-22T20:13:27.768Z,84.12
2022-11-22T20:16:22.164Z,84.38
2022-11-22T20:19:12.754Z,83.47
2022-11-22T20:22:07.166Z,84.75
2022-11-22T20:24:56.672Z,84.48
2022-11-22T20:27:46.133Z,85.05
2022-11-22T20:30:35.924Z,86.18
2022-11-22T20:33:26.175Z,86.42
2022-11-22T20:36:18.710Z,85.69
2022-11-22T20:39:10.947Z,85.61
2022-11-22T20:42:32.117Z,85.07
2022-11-22T20:45:11.096Z,85.06
2022-11-22T20:48:00.463Z,83.99
2022-11-22T20:50:52.268Z,83.75
2022-11-22T20:53:42.111Z,83.99
2022-11-22T20:56:33.383Z,83.95
2022-11-22T20:59:22.725Z,84.19
2022-11-22T21:02:12.403Z,84.01
2022-11-22T21:05:01.777Z,83.84
2022-11-22T21:07:51.270Z,83.57
2022-11-22T21:10:40.719Z,83.83
2022-11-22T21:13:32.239Z,83.77
2022-11-22T21:16:25.119Z,83.90
2022-11-22T21:19:15.026Z,84.26
2022-11-22T21:22:04.391Z,84.35
2022-11-22T21:24:53.732Z,83.80
2022-11-22T21:27:43.221Z,83.61
2022-11-22T21:30:33.946Z,84.00
2022-11-22T21:33:23.885Z,84.03
2022-11-22T21:36:13.541Z,84.12
2022-11-22T21:39:03.097Z,84.11
2022-11-22T21:41:52.468Z,84.23
2022-11-22T21:44:41.818Z,84.11
2022-11-22T21:47:32.880Z,83.71
2022-11-22T21:50:22.455Z,84.18
2022-11-22T21:53:11.954Z,84.03
2022-11-22T21:56:03.983Z,84.56
2022-11-22T21:58:53.496Z,84.05
2022-11-22T22:01:42.885Z,84.03
2022-11-22T22:04:33.886Z,85.09
2022-11-22T22:07:45.107Z,85.42
2022-11-22T22:10:32.773Z,85.30
2022-11-22T22:13:22.022Z,85.78
2022-11-22T22:16:18.877Z,85.73
2022-11-22T22:19:09.575Z,86.60
2022-11-22T22:22:00.586Z,85.74
2022-11-22T22:24:50.235Z,85.60
2022-11-22T22:27:39.545Z,85.42
2022-11-22T22:30:28.804Z,85.66
2022-11-22T22:33:18.237Z,85.85
2022-11-22T22:36:09.549Z,85.88
2022-11-22T22:39:00.362Z,85.75
2022-11-22T22:41:49.732Z,85.77
2022-11-22T22:44:39.049Z,85.33
2022-11-22T22:47:30.942Z,85.42
2022-11-22T22:50:21.652Z,85.69
2022-11-22T22:53:11.098Z,85.56
2022-11-22T22:56:02.260Z,84.99
2022-11-22T22:58:56.171Z,84.87
2022-11-22T23:01:45.487Z,85.45
2022-11-22T23:04:34.938Z,84.80
2022-11-22T23:07:24.272Z,85.27
2022-11-22T23:10:13.704Z,85.61
2022-11-22T23:13:04.706Z,85.68
2022-11-22T23:15:58.282Z,85.58
2022-11-22T23:18:48.159Z,86.43
2022-11-22T23:21:37.913Z,88.59
2022-11-22T23:24:27.439Z,90.10
2022-11-22T23:27:16.686Z,90.75
2022-11-22T23:30:09.807Z,91.52
2022-11-22T23:32:58.883Z,90.07
2022-11-22T23:35:48.260Z,88.34
2022-11-22T23:38:37.836Z,88.47
2022-11-22T23:41:27.327Z,89.12
2022-11-22T23:44:16.649Z,88.82
2022-11-22T23:47:07.423Z,88.35
2022-11-22T23:49:56.771Z,89.51
2022-11-22T23:52:46.226Z,90.51
2022-11-22T23:55:35.605Z,90.77
2022-11-22T23:58:24.854Z,89.79
